createdAt,value
2023-03-02T00:03:29.102Z,4.20
2023-03-02T00:09:23.533Z,4.10
2023-03-02T00:15:18.167Z,4.00
2023-03-02T00:21:36.636Z,3.90
2023-03-02T00:27:55.030Z,4.00
2023-03-02T00:33:51.212Z,4.00
2023-03-02T00:39:45.794Z,3.90
2023-03-02T00:46:18.097Z,3.90
2023-03-02T00:52:36.571Z,3.90
2023-03-02T00:58:31.119Z,3.80
2023-03-02T01:04:29.687Z,3.80
2023-03-02T01:10:48.215Z,3.80
2023-03-02T01:17:06.853Z,3.70
2023-03-02T01:23:01.206Z,3.60
2023-03-02T01:28:55.725Z,3.60
2023-03-02T01:35:14.233Z,3.60
2023-03-02T01:41:32.691Z,3.60
2023-03-02T01:47:28.460Z,3.50
2023-03-02T01:53:23.827Z,3.50
2023-03-02T01:59:42.334Z,3.50
2023-03-02T02:06:09.905Z,3.50
2023-03-02T02:12:05.934Z,3.40
2023-03-02T02:18:00.762Z,3.30
2023-03-02T02:24:25.879Z,3.30
2023-03-02T02:30:44.256Z,3.30
2023-03-02T02:36:40.669Z,3.30
2023-03-02T02:42:37.524Z,3.30
2023-03-02T02:49:31.176Z,3.30
2023-03-02T02:55:49.742Z,3.30
2023-03-02T03:01:44.662Z,3.30
2023-03-02T03:07:40.292Z,3.30
2023-03-02T03:14:05.851Z,3.30
2023-03-02T03:20:24.498Z,3.30
2023-03-02T03:26:18.837Z,3.30
2023-03-02T03:32:13.316Z,3.30
2023-03-02T03:38:31.815Z,3.40
2023-03-02T03:44:50.176Z,3.30
2023-03-02T03:50:44.788Z,3.30
2023-03-02T03:56:41.564Z,3.20
2023-03-02T04:03:00.108Z,3.20
2023-03-02T04:09:18.530Z,3.10
2023-03-02T04:15:13.962Z,3.10
2023-03-02T04:21:10.405Z,3.00
2023-03-02T04:27:28.871Z,3.10
2023-03-02T04:33:47.258Z,2.90
2023-03-02T04:39:42.268Z,2.90
2023-03-02T04:45:36.778Z,2.80
2023-03-02T04:52:07.313Z,2.80
2023-03-02T04:58:25.815Z,2.80
2023-03-02T05:04:20.252Z,2.70
2023-03-02T05:10:15.568Z,2.70
2023-03-02T05:16:35.935Z,2.70
2023-03-02T05:22:55.604Z,2.70
2023-03-02T05:28:51.490Z,2.60
2023-03-02T05:34:46.840Z,2.50
2023-03-02T05:41:05.388Z,2.60
2023-03-02T05:47:23.791Z,2.50
2023-03-02T05:53:18.166Z,2.50
2023-03-02T05:59:12.649Z,2.50
2023-03-02T06:05:31.149Z,2.50
2023-03-02T06:11:49.520Z,2.60
2023-03-02T06:17:43.929Z,2.60
2023-03-02T06:23:38.490Z,2.60
2023-03-02T06:29:57.037Z,2.60
2023-03-02T06:36:17.154Z,2.70
2023-03-02T06:42:11.659Z,2.60
2023-03-02T06:48:06.975Z,2.50
2023-03-02T06:54:37.623Z,2.50
2023-03-02T07:00:56.068Z,2.50
2023-03-02T07:06:50.432Z,2.60
2023-03-02T07:12:46.926Z,2.60
2023-03-02T07:19:05.403Z,2.80
2023-03-02T07:25:23.762Z,2.90
2023-03-02T07:31:18.174Z,3.00
2023-03-02T07:37:12.662Z,3.10
2023-03-02T07:43:31.239Z,3.30
2023-03-02T07:49:49.636Z,3.40
2023-03-02T07:55:45.992Z,3.60
2023-03-02T08:01:40.812Z,3.60
2023-03-02T08:07:59.430Z,3.70
2023-03-02T08:14:17.787Z,3.80
2023-03-02T08:20:12.378Z,4.00
2023-03-02T08:26:07.882Z,4.20
2023-03-02T08:32:26.458Z,4.20
2023-03-02T08:38:45.046Z,4.30
2023-03-02T08:44:39.410Z,4.40
2023-03-02T08:50:33.872Z,4.60
2023-03-02T08:57:06.660Z,5.80
2023-03-02T09:03:28.507Z,6.10
2023-03-02T09:09:22.874Z,5.50
2023-03-02T09:15:17.604Z,5.20
2023-03-02T09:21:37.130Z,5.00
2023-03-02T09:27:55.540Z,5.20
2023-03-02T09:33:49.907Z,5.10
2023-03-02T09:39:44.388Z,5.20
2023-03-02T09:46:10.521Z,5.40
2023-03-02T09:52:33.506Z,5.60
2023-03-02T09:58:50.890Z,5.70
2023-03-02T10:04:50.419Z,6.50
2023-03-02T10:11:55.451Z,6.80
2023-03-02T10:18:18.152Z,6.90
2023-03-02T10:24:15.630Z,6.30
2023-03-02T10:30:27.716Z,6.30
2023-03-02T10:36:47.799Z,6.60
2023-03-02T10:43:06.707Z,6.70
2023-03-02T10:49:01.413Z,6.50
2023-03-02T10:55:23.582Z,6.60
2023-03-02T11:02:08.990Z,6.80
2023-03-02T11:08:27.679Z,7.00
2023-03-02T11:14:23.931Z,6.90
2023-03-02T11:20:41.821Z,6.90
2023-03-02T11:27:03.542Z,7.10
2023-03-02T11:33:23.456Z,7.50
2023-03-02T11:39:18.448Z,7.30
2023-03-02T11:45:22.647Z,7.50
2023-03-02T11:51:50.064Z,7.80
2023-03-02T11:58:22.860Z,8.20
2023-03-02T12:04:46.447Z,8.10
2023-03-02T12:10:43.018Z,8.10
2023-03-02T12:17:37.326Z,8.20
2023-03-02T12:23:57.317Z,8.20
2023-03-02T12:30:09.720Z,8.40
2023-03-02T12:36:15.841Z,8.40
2023-03-02T12:42:44.256Z,8.80
2023-03-02T12:49:19.734Z,8.80
2023-03-02T12:55:18.135Z,9.00
2023-03-02T13:01:32.856Z,9.30
2023-03-02T13:08:04.282Z,9.00
2023-03-02T13:14:26.429Z,9.00
2023-03-02T13:20:21.339Z,9.00
2023-03-02T13:26:30.261Z,9.10
2023-03-02T13:32:48.893Z,9.00
2023-03-02T13:39:07.699Z,9.10
2023-03-02T13:45:18.216Z,9.30
2023-03-02T13:51:17.867Z,9.10
2023-03-02T13:57:36.335Z,9.50
2023-03-02T14:04:02.108Z,9.60
2023-03-02T14:10:01.604Z,9.00
2023-03-02T14:15:56.239Z,8.80
2023-03-02T14:22:15.801Z,8.80
2023-03-02T14:28:36.043Z,9.10
2023-03-02T14:34:30.886Z,8.90
2023-03-02T14:40:47.742Z,8.70
2023-03-02T14:47:07.265Z,8.70
2023-03-02T14:53:27.573Z,8.60
2023-03-02T14:59:23.164Z,8.60
2023-03-02T15:05:19.727Z,8.60
2023-03-02T15:11:51.355Z,8.20
2023-03-02T15:18:09.969Z,7.90
2023-03-02T15:24:04.584Z,7.90
2023-03-02T15:29:59.017Z,7.70
2023-03-02T15:36:17.740Z,7.70
2023-03-02T15:42:38.279Z,7.60
2023-03-02T15:48:32.711Z,7.50
2023-03-02T15:54:27.437Z,7.40
2023-03-02T16:00:45.998Z,7.30
2023-03-02T16:07:04.474Z,7.10
2023-03-02T16:13:02.417Z,7.10
2023-03-02T16:18:57.749Z,7.00
2023-03-02T16:25:16.375Z,6.90
2023-03-02T16:31:37.798Z,6.90
2023-03-02T16:37:34.399Z,6.80
2023-03-02T16:43:29.048Z,6.70
2023-03-02T16:49:48.186Z,6.70
2023-03-02T16:56:08.022Z,6.70
2023-03-02T17:02:02.509Z,6.60
2023-03-02T17:07:58.930Z,6.50
2023-03-02T17:14:29.467Z,6.50
2023-03-02T17:20:50.767Z,6.50
2023-03-02T17:26:47.252Z,6.40
2023-03-02T17:32:41.896Z,6.40
2023-03-02T17:39:01.480Z,6.40
2023-03-02T17:45:20.469Z,6.40
2023-03-02T17:51:15.130Z,6.40
2023-03-02T17:57:10.250Z,6.30
2023-03-02T18:03:29.116Z,6.30
2023-03-02T18:09:48.533Z,6.30
2023-03-02T18:15:42.958Z,6.20
2023-03-02T18:21:39.990Z,6.10
2023-03-02T18:27:58.577Z,6.20
2023-03-02T18:34:17.020Z,6.20
2023-03-02T18:40:17.398Z,6.20
2023-03-02T18:46:22.415Z,6.10
2023-03-02T18:52:41.157Z,6.20
2023-03-02T18:59:01.105Z,6.10
2023-03-02T19:04:56.595Z,6.10
2023-03-02T19:10:56.625Z,6.10
2023-03-02T19:17:27.157Z,6.10
2023-03-02T19:23:46.563Z,6.10
2023-03-02T19:29:41.010Z,6.10
2023-03-02T19:35:37.743Z,6.10
2023-03-02T19:41:56.441Z,6.10
2023-03-02T19:48:14.766Z,6.00
2023-03-02T19:54:09.189Z,6.00
2023-03-02T20:00:05.838Z,6.00
2023-03-02T20:06:26.158Z,6.00
2023-03-02T20:12:44.514Z,6.00
2023-03-02T20:18:39.467Z,5.90
2023-03-02T20:24:33.971Z,6.00
2023-03-02T20:30:55.140Z,6.00
2023-03-02T20:37:16.489Z,6.00
2023-03-02T20:43:10.853Z,6.00
2023-03-02T20:49:05.787Z,6.00
2023-03-02T20:55:26.912Z,6.00
2023-03-02T21:01:45.314Z,6.10
2023-03-02T21:07:40.748Z,6.00
2023-03-02T21:13:35.414Z,6.00
2023-03-02T21:20:07.202Z,6.00
2023-03-02T21:26:25.828Z,6.00
2023-03-02T21:32:20.299Z,5.90
2023-03-02T21:38:14.839Z,5.90
2023-03-02T21:44:33.364Z,5.90
2023-03-02T21:50:51.702Z,5.80
2023-03-02T21:56:46.053Z,5.80
2023-03-02T22:02:40.561Z,5.70
2023-03-02T22:09:01.458Z,5.70
2023-03-02T22:15:21.191Z,5.70
2023-03-02T22:21:18.464Z,5.70
2023-03-02T22:27:22.263Z,5.60
2023-03-02T22:33:41.283Z,5.50
2023-03-02T22:40:17.260Z,5.60
2023-03-02T22:46:15.929Z,5.50
2023-03-02T22:52:15.469Z,5.40
2023-03-02T22:58:48.113Z,5.50
2023-03-02T23:05:26.294Z,5.40
2023-03-02T23:11:21.341Z,5.40
2023-03-02T23:17:20.517Z,5.30
2023-03-02T23:23:51.218Z,5.30
2023-03-02T23:30:09.886Z,5.40
2023-03-02T23:36:04.361Z,5.30
2023-03-02T23:41:58.993Z,5.20
2023-03-02T23:48:17.538Z,5.20
2023-03-02T23:54:35.933Z,5.20
